createdAt,value
2022-12-11T00:03:53.952Z,97912.81
2022-12-11T00:07:00.205Z,97916.66
2022-12-11T00:10:38.033Z,97914.28
2022-12-11T00:15:37.981Z,97909.16
2022-12-11T00:16:56.759Z,97913.13
2022-12-11T00:20:24.167Z,97923.03
2022-12-11T00:22:58.206Z,97923.84
2022-12-11T00:26:07.733Z,97926.22
2022-12-11T00:29:47.260Z,97920.78
2022-12-11T00:34:03.058Z,97922.38
2022-12-11T00:36:34.204Z,97925.63
2022-12-11T00:39:48.730Z,97932.78
2022-12-11T00:46:14.287Z,97932.75
2022-12-11T00:49:51.904Z,97938.34
2022-12-11T00:52:58.944Z,97936.56
2022-12-11T00:56:07.577Z,97933.50
2022-12-11T00:59:01.614Z,97936.03
2022-12-11T01:02:45.222Z,97947.03
2022-12-11T01:06:05.989Z,97955.06
2022-12-11T01:13:57.140Z,97962.16
2022-12-11T01:16:49.049Z,97962.00
2022-12-11T01:20:07.871Z,97959.94
2022-12-11T01:26:58.062Z,97962.88
2022-12-11T01:30:29.709Z,97967.19
2022-12-11T01:37:10.206Z,97955.31
2022-12-11T01:40:21.420Z,97957.25
2022-12-11T01:43:08.869Z,97955.47
2022-12-11T01:45:57.263Z,97951.63
2022-12-11T01:52:03.196Z,97954.50
2022-12-11T01:54:50.059Z,97953.09
2022-12-11T01:57:52.078Z,97952.72
2022-12-11T02:00:52.481Z,97958.34
2022-12-11T02:04:13.139Z,97957.22
2022-12-11T02:07:01.834Z,97958.72
2022-12-11T02:09:42.050Z,97956.81
2022-12-11T02:12:34.634Z,97951.25
2022-12-11T02:15:26.492Z,97959.72
2022-12-11T02:18:06.582Z,97962.75
2022-12-11T02:21:10.138Z,97964.34
2022-12-11T02:24:15.430Z,97967.00
2022-12-11T02:27:19.144Z,97961.22
2022-12-11T02:30:39.735Z,97951.25
2022-12-11T02:33:27.219Z,97964.81
2022-12-11T02:36:16.230Z,97961.31
2022-12-11T02:39:42.907Z,97947.88
2022-12-11T02:49:47.757Z,97962.13
2022-12-11T03:17:12.634Z,97951.31
2022-12-11T03:19:47.642Z,97950.50
2022-12-11T03:22:58.840Z,97956.78
2022-12-11T03:25:29.753Z,97958.97
2022-12-11T03:28:29.177Z,97966.66
2022-12-11T03:30:57.279Z,97953.88
2022-12-11T03:33:29.646Z,97964.88
2022-12-11T03:36:01.569Z,97955.59
2022-12-11T03:38:37.358Z,97948.91
2022-12-11T03:41:07.253Z,97953.84
2022-12-11T03:43:35.710Z,97948.06
2022-12-11T03:46:03.347Z,97953.19
2022-12-11T03:48:38.119Z,97951.44
2022-12-11T03:51:06.934Z,97949.94
2022-12-11T03:53:38.442Z,97944.22
2022-12-11T03:56:11.042Z,97949.97
2022-12-11T03:58:38.788Z,97950.16
2022-12-11T04:01:10.583Z,97948.69
2022-12-11T04:03:39.663Z,97954.75
2022-12-11T04:06:06.900Z,97959.22
2022-12-11T04:08:33.845Z,97958.53
2022-12-11T04:11:24.691Z,97956.59
2022-12-11T04:14:11.457Z,97947.97
2022-12-11T04:16:38.499Z,97952.13
2022-12-11T04:19:25.864Z,97943.34
2022-12-11T04:22:12.523Z,97950.13
2022-12-11T04:24:40.707Z,97949.31
2022-12-11T04:27:07.794Z,97952.69
2022-12-11T04:29:34.902Z,97944.69
2022-12-11T04:32:04.621Z,97943.25
2022-12-11T04:34:33.951Z,97948.50
2022-12-11T04:37:00.996Z,97942.28
2022-12-11T04:39:28.053Z,97949.47
2022-12-11T04:41:54.885Z,97937.34
2022-12-11T04:44:23.092Z,97940.03
2022-12-11T04:46:50.053Z,97934.59
2022-12-11T04:49:17.029Z,97931.59
2022-12-11T04:51:44.007Z,97934.31
2022-12-11T04:54:10.801Z,97933.69
2022-12-11T04:56:40.128Z,97936.75
2022-12-11T04:59:06.969Z,97934.16
2022-12-11T05:01:36.301Z,97933.81
2022-12-11T05:04:03.233Z,97928.22
2022-12-11T05:06:30.135Z,97929.16
2022-12-11T05:08:57.034Z,97927.88
2022-12-11T05:11:26.614Z,97924.00
2022-12-11T05:13:53.540Z,97922.53
2022-12-11T05:16:20.517Z,97927.28
2022-12-11T05:18:50.189Z,97928.25
2022-12-11T05:21:17.360Z,97934.75
2022-12-11T05:23:44.644Z,97930.63
2022-12-11T05:26:17.696Z,97937.31
2022-12-11T05:28:45.481Z,97928.38
2022-12-11T05:31:17.157Z,97933.31
2022-12-11T05:33:45.308Z,97925.66
2022-12-11T05:36:27.890Z,97923.31
2022-12-11T05:38:55.202Z,97933.06
2022-12-11T05:41:24.676Z,97927.63
2022-12-11T05:43:52.213Z,97926.53
2022-12-11T05:46:24.087Z,97927.97
2022-12-11T05:48:58.206Z,97920.00
2022-12-11T05:51:25.352Z,97916.69
2022-12-11T05:54:00.515Z,97914.63
2022-12-11T05:56:30.719Z,97910.94
2022-12-11T05:58:59.130Z,97909.38
2022-12-11T06:01:30.531Z,97901.38
2022-12-11T06:03:59.675Z,97912.25
2022-12-11T06:06:30.785Z,97911.13
2022-12-11T06:08:59.143Z,97914.63
2022-12-11T06:11:29.002Z,97911.91
2022-12-11T06:13:56.568Z,97916.25
2022-12-11T06:16:26.212Z,97915.00
2022-12-11T06:18:58.406Z,97915.84
2022-12-11T06:21:31.576Z,97922.81
2022-12-11T06:24:05.423Z,97914.50
2022-12-11T06:26:33.055Z,97922.16
2022-12-11T06:29:07.562Z,97911.78
2022-12-11T06:31:36.164Z,97920.53
2022-12-11T06:34:03.284Z,97914.09
2022-12-11T06:36:32.644Z,97918.06
2022-12-11T06:39:03.032Z,97909.72
2022-12-11T06:41:30.382Z,97914.34
2022-12-11T06:43:59.742Z,97915.28
2022-12-11T06:46:29.863Z,97908.09
2022-12-11T06:48:57.009Z,97918.38
2022-12-11T06:51:26.463Z,97914.94
2022-12-11T06:53:55.531Z,97913.91
2022-12-11T06:56:23.371Z,97908.81
2022-12-11T06:59:02.877Z,97919.44
2022-12-11T07:01:36.205Z,97916.84
2022-12-11T07:04:05.527Z,97914.06
2022-12-11T07:06:40.006Z,97917.13
2022-12-11T07:09:08.879Z,97922.59
2022-12-11T07:11:36.023Z,97926.09
2022-12-11T07:14:03.491Z,97920.50
2022-12-11T07:16:30.989Z,97925.50
2022-12-11T07:18:58.088Z,97930.31
2022-12-11T07:21:25.236Z,97934.97
2022-12-11T07:23:54.608Z,97930.88
2022-12-11T07:26:32.464Z,97931.88
2022-12-11T07:29:00.382Z,97931.28
2022-12-11T07:31:34.287Z,97936.22
2022-12-11T07:34:06.939Z,97937.63
2022-12-11T07:36:35.088Z,97934.97
2022-12-11T07:39:03.556Z,97937.88
2022-12-11T07:41:31.841Z,97935.94
2022-12-11T07:44:01.378Z,97928.34
2022-12-11T07:46:33.054Z,97935.03
2022-12-11T07:49:01.069Z,97933.31
2022-12-11T07:51:36.216Z,97938.88
2022-12-11T07:54:18.237Z,97939.09
2022-12-11T07:56:53.530Z,97945.03
2022-12-11T07:59:23.626Z,97944.88
2022-12-11T08:01:55.160Z,97949.00
2022-12-11T08:04:26.074Z,97935.91
2022-12-11T08:06:59.245Z,97936.88
2022-12-11T08:09:29.167Z,97935.47
2022-12-11T08:12:01.290Z,97935.16
2022-12-11T08:14:28.424Z,97946.34
2022-12-11T08:17:03.163Z,97939.19
2022-12-11T08:19:32.510Z,97934.72
2022-12-11T08:22:02.582Z,97941.38
2022-12-11T08:24:32.593Z,97940.72
2022-12-11T08:27:02.102Z,97938.63
2022-12-11T08:29:28.983Z,97940.72
2022-12-11T08:31:58.651Z,97943.63
2022-12-11T08:34:26.836Z,97948.78
2022-12-11T08:36:55.889Z,97953.75
2022-12-11T08:39:22.977Z,97950.56
2022-12-11T08:42:03.756Z,97946.13
2022-12-11T08:44:43.413Z,97946.47
2022-12-11T08:47:15.564Z,97944.88
2022-12-11T08:49:45.018Z,97944.44
2022-12-11T08:52:17.435Z,97955.16
2022-12-11T08:54:54.556Z,97951.34
2022-12-11T08:57:28.327Z,97949.13
2022-12-11T08:59:55.314Z,97954.06
2022-12-11T09:02:28.034Z,97951.44
2022-12-11T09:05:00.006Z,97960.16
2022-12-11T09:07:32.519Z,97946.41
2022-12-11T09:10:00.085Z,97959.06
2022-12-11T09:12:29.688Z,97960.97
2022-12-11T09:14:57.096Z,97957.00
2022-12-11T09:17:32.564Z,97954.59
2022-12-11T09:20:03.322Z,97960.38
2022-12-11T09:22:50.832Z,97959.38
2022-12-11T09:25:26.708Z,97948.38
2022-12-11T09:28:02.336Z,97956.03
2022-12-11T09:30:34.194Z,97947.25
2022-12-11T09:33:01.435Z,97959.56
2022-12-11T09:35:38.397Z,97949.81
2022-12-11T09:38:14.020Z,97949.50
2022-12-11T09:40:46.399Z,97943.59
2022-12-11T09:43:37.895Z,97946.00
2022-12-11T09:46:10.719Z,97949.66
2022-12-11T09:48:46.794Z,97957.00
2022-12-11T09:51:22.542Z,97947.22
2022-12-11T09:53:50.522Z,97946.28
2022-12-11T09:56:40.683Z,97941.34
2022-12-11T09:59:32.353Z,97943.44
2022-12-11T10:02:29.324Z,97948.88
2022-12-11T10:05:23.719Z,97943.91
2022-12-11T10:08:24.168Z,97947.78
2022-12-11T10:11:22.843Z,97938.63
2022-12-11T10:14:06.484Z,97936.09
2022-12-11T10:16:44.106Z,97923.78
2022-12-11T10:19:30.403Z,97927.09
2022-12-11T10:22:18.062Z,97921.06
2022-12-11T10:25:12.355Z,97920.88
2022-12-11T10:27:43.436Z,97920.56
2022-12-11T10:30:24.863Z,97918.78
2022-12-11T10:33:22.131Z,97925.84
2022-12-11T10:35:59.168Z,97916.53
2022-12-11T10:38:48.919Z,97918.78
2022-12-11T10:41:33.660Z,97922.00
2022-12-11T10:44:01.980Z,97914.50
2022-12-11T10:46:30.114Z,97914.50
2022-12-11T10:49:01.130Z,97910.50
2022-12-11T10:51:39.875Z,97915.13
2022-12-11T10:54:34.850Z,97911.75
2022-12-11T10:57:10.971Z,97910.31
2022-12-11T10:59:50.509Z,97910.97
2022-12-11T11:02:37.877Z,97898.31
2022-12-11T11:05:49.121Z,97903.28
2022-12-11T11:08:32.230Z,97892.91
2022-12-11T11:11:05.717Z,97897.06
2022-12-11T11:13:36.612Z,97888.41
2022-12-11T11:16:15.647Z,97885.38
2022-12-11T11:19:00.503Z,97881.84
2022-12-11T11:21:30.155Z,97875.59
2022-12-11T11:24:02.346Z,97869.56
2022-12-11T11:27:04.471Z,97870.31
2022-12-11T11:29:53.097Z,97872.56
2022-12-11T11:32:32.470Z,97871.44
2022-12-11T11:35:17.212Z,97868.09
2022-12-11T11:37:56.464Z,97869.97
2022-12-11T11:40:31.209Z,97872.16
2022-12-11T11:43:34.400Z,97858.56
2022-12-11T11:46:11.197Z,97866.84
2022-12-11T11:48:48.595Z,97858.66
2022-12-11T11:51:44.747Z,97854.66
2022-12-11T11:54:45.278Z,97852.97
2022-12-11T11:57:41.931Z,97848.47
2022-12-11T12:00:37.407Z,97841.06
2022-12-11T12:03:19.993Z,97839.78
2022-12-11T12:06:10.889Z,97842.00
2022-12-11T12:08:58.854Z,97836.75
2022-12-11T12:11:52.362Z,97833.41
2022-12-11T12:14:51.154Z,97826.06
2022-12-11T12:17:36.442Z,97823.81
2022-12-11T12:20:30.096Z,97822.03
2022-12-11T12:23:27.400Z,97822.44
2022-12-11T12:26:12.735Z,97826.81
2022-12-11T12:29:16.192Z,97822.50
2022-12-11T12:32:20.015Z,97823.59
2022-12-11T12:35:25.586Z,97819.31
2022-12-11T12:38:12.013Z,97821.09
2022-12-11T12:41:21.344Z,97818.38
2022-12-11T12:44:16.529Z,97824.44
2022-12-11T12:46:57.192Z,97819.97
2022-12-11T12:49:46.161Z,97819.31
2022-12-11T12:52:35.941Z,97805.75
2022-12-11T12:55:29.080Z,97813.09
2022-12-11T12:58:24.026Z,97804.94
2022-12-11T13:01:20.572Z,97810.84
2022-12-11T13:04:54.981Z,97803.94
2022-12-11T13:07:34.035Z,97805.88
2022-12-11T13:10:04.585Z,97802.19
2022-12-11T13:12:47.457Z,97805.28
2022-12-11T13:15:33.283Z,97802.72
2022-12-11T13:18:12.916Z,97800.47
2022-12-11T13:20:48.309Z,97805.41
2022-12-11T13:23:37.538Z,97798.25
2022-12-11T13:26:12.895Z,97808.47
2022-12-11T13:28:42.916Z,97799.19
2022-12-11T13:31:18.496Z,97801.59
2022-12-11T13:34:03.116Z,97797.28
2022-12-11T13:36:40.229Z,97800.94
2022-12-11T13:39:32.468Z,97788.97
2022-12-11T13:42:07.724Z,97803.81
2022-12-11T13:44:43.361Z,97816.44
2022-12-11T13:47:27.008Z,97805.28
2022-12-11T13:50:22.157Z,97803.00
2022-12-11T13:53:03.525Z,97800.25
2022-12-11T13:55:42.552Z,97808.44
2022-12-11T13:58:43.682Z,97803.13
2022-12-11T14:01:26.293Z,97803.28
2022-12-11T14:04:50.120Z,97809.53
2022-12-11T14:07:31.610Z,97818.94
2022-12-11T14:10:10.118Z,97813.53
2022-12-11T14:12:37.890Z,97820.38
2022-12-11T14:15:20.599Z,97826.78
2022-12-11T14:21:09.705Z,97821.69
2022-12-11T14:24:14.087Z,97817.06
2022-12-11T14:26:57.318Z,97825.88
2022-12-11T14:29:39.070Z,97828.91
2022-12-11T14:32:29.646Z,97822.50
2022-12-11T14:35:11.936Z,97826.31
2022-12-11T14:37:52.658Z,97827.63
2022-12-11T14:40:30.913Z,97824.56
2022-12-11T14:43:35.659Z,97830.16
2022-12-11T14:46:18.869Z,97837.16
2022-12-11T14:49:01.549Z,97836.06
2022-12-11T14:51:46.720Z,97846.59
2022-12-11T14:54:44.624Z,97841.81
2022-12-11T14:58:17.108Z,97837.16
2022-12-11T15:01:30.623Z,97846.28
2022-12-11T15:04:35.354Z,97848.66
2022-12-11T15:08:15.753Z,97844.38
2022-12-11T15:11:03.544Z,97844.47
2022-12-11T15:13:39.586Z,97855.03
2022-12-11T15:16:14.627Z,97852.34
2022-12-11T15:19:17.601Z,97867.50
2022-12-11T15:22:11.669Z,97863.81
2022-12-11T15:24:49.050Z,97857.59
2022-12-11T15:27:51.061Z,97859.19
2022-12-11T15:30:17.892Z,97862.69
2022-12-11T15:32:46.999Z,97852.75
2022-12-11T15:36:02.125Z,97856.06
2022-12-11T15:38:36.182Z,97858.28
2022-12-11T15:41:06.896Z,97859.66
2022-12-11T15:43:42.546Z,97856.22
2022-12-11T15:46:39.510Z,97864.63
2022-12-11T15:49:13.492Z,97861.72
2022-12-11T15:51:43.347Z,97865.06
2022-12-11T15:54:11.174Z,97866.47
2022-12-11T15:56:38.325Z,97869.34
2022-12-11T15:59:13.250Z,97869.34
2022-12-11T16:01:46.007Z,97887.88
2022-12-11T16:04:17.175Z,97884.06
2022-12-11T16:06:46.577Z,97882.19
2022-12-11T16:09:16.462Z,97878.66
2022-12-11T16:11:44.373Z,97877.06
2022-12-11T16:14:12.317Z,97873.22
2022-12-11T16:16:41.991Z,97885.13
2022-12-11T16:19:15.343Z,97881.19
2022-12-11T16:22:07.617Z,97880.09
2022-12-11T16:29:05.532Z,97884.63
2022-12-11T16:31:50.259Z,97884.16
2022-12-11T16:34:22.685Z,97876.50
2022-12-11T16:36:53.675Z,97880.06
2022-12-11T16:39:20.691Z,97879.28
2022-12-11T16:42:40.031Z,97882.22
2022-12-11T16:45:43.596Z,97876.06
2022-12-11T16:48:48.468Z,97873.94
2022-12-11T16:51:22.828Z,97879.09
2022-12-11T16:54:09.071Z,97874.34
2022-12-11T16:56:37.957Z,97873.56
2022-12-11T16:59:07.504Z,97876.56
2022-12-11T17:01:36.701Z,97875.75
2022-12-11T17:04:03.470Z,97875.16
2022-12-11T17:06:30.181Z,97885.22
2022-12-11T17:08:57.064Z,97876.31
2022-12-11T17:11:28.502Z,97878.41
2022-12-11T17:13:59.208Z,97878.28
2022-12-11T17:16:30.631Z,97870.75
2022-12-11T17:19:02.635Z,97873.66
2022-12-11T17:21:38.082Z,97878.91
2022-12-11T17:24:05.207Z,97878.09
2022-12-11T17:26:37.179Z,97880.88
2022-12-11T17:29:07.022Z,97884.53
2022-12-11T17:31:34.170Z,97882.94
2022-12-11T17:34:06.647Z,97886.47
2022-12-11T17:36:33.704Z,97883.50
2022-12-11T17:39:01.123Z,97877.25
2022-12-11T17:41:28.038Z,97884.13
2022-12-11T17:43:55.684Z,97890.88
2022-12-11T17:46:22.716Z,97893.41
2022-12-11T17:48:49.623Z,97887.88
2022-12-11T17:51:21.937Z,97896.31
2022-12-11T17:53:51.212Z,97890.88
2022-12-11T17:56:21.817Z,97901.78
2022-12-11T17:58:51.257Z,97891.09
2022-12-11T18:01:18.867Z,97894.31
2022-12-11T18:03:46.979Z,97894.63
2022-12-11T18:06:16.179Z,97901.00
2022-12-11T18:08:44.400Z,97901.78
2022-12-11T18:11:24.033Z,97902.63
2022-12-11T18:13:53.565Z,97893.06
2022-12-11T18:16:32.720Z,97896.72
2022-12-11T18:18:59.504Z,97895.00
2022-12-11T18:21:29.977Z,97893.91
2022-12-11T18:23:56.749Z,97898.34
2022-12-11T18:26:26.287Z,97899.94
2022-12-11T18:29:08.639Z,97904.69
2022-12-11T18:31:41.962Z,97904.72
2022-12-11T18:34:10.598Z,97902.44
2022-12-11T18:36:37.448Z,97900.69
2022-12-11T18:39:06.743Z,97897.16
2022-12-11T18:41:40.901Z,97899.88
2022-12-11T18:44:10.397Z,97896.50
2022-12-11T18:46:40.658Z,97901.03
2022-12-11T18:49:13.062Z,97891.75
2022-12-11T18:51:42.822Z,97894.81
2022-12-11T18:54:10.268Z,97890.66
2022-12-11T18:56:42.709Z,97889.72
2022-12-11T18:59:18.340Z,97886.69
2022-12-11T19:01:50.869Z,97895.16
2022-12-11T19:04:26.166Z,97888.88
2022-12-11T19:06:57.903Z,97885.53
2022-12-11T19:09:24.887Z,97893.06
2022-12-11T19:11:52.054Z,97889.25
2022-12-11T19:14:21.464Z,97888.00
2022-12-11T19:17:00.156Z,97879.53
2022-12-11T19:19:29.397Z,97889.94
2022-12-11T19:21:56.255Z,97890.09
2022-12-11T19:24:24.281Z,97885.94
2022-12-11T19:26:51.441Z,97884.69
2022-12-11T19:29:35.548Z,97889.63
2022-12-11T19:32:09.868Z,97887.41
2022-12-11T19:34:38.572Z,97887.28
2022-12-11T19:37:05.657Z,97887.44
2022-12-11T19:39:33.157Z,97885.19
2022-12-11T19:42:00.203Z,97887.09
2022-12-11T19:44:27.301Z,97887.44
2022-12-11T19:46:56.753Z,97893.22
2022-12-11T19:49:23.943Z,97883.28
2022-12-11T19:51:51.392Z,97888.13
2022-12-11T19:54:18.445Z,97884.91
2022-12-11T19:56:46.580Z,97889.25
2022-12-11T19:59:17.924Z,97886.06
2022-12-11T20:01:48.259Z,97886.38
2022-12-11T20:04:17.241Z,97895.13
2022-12-11T20:06:46.770Z,97888.72
2022-12-11T20:09:17.056Z,97889.97
2022-12-11T20:11:45.331Z,97886.78
2022-12-11T20:14:23.936Z,97885.53
2022-12-11T20:17:12.123Z,97890.47
2022-12-11T20:19:43.110Z,97894.78
2022-12-11T20:22:10.296Z,97890.78
2022-12-11T20:24:37.740Z,97890.75
2022-12-11T20:27:05.192Z,97903.50
2022-12-11T20:29:32.582Z,97904.50
2022-12-11T20:32:00.550Z,97899.03
2022-12-11T20:34:27.907Z,97900.34
2022-12-11T20:36:58.803Z,97889.44
2022-12-11T20:39:26.597Z,97893.28
2022-12-11T20:41:53.483Z,97895.88
2022-12-11T20:44:20.479Z,97894.09
2022-12-11T20:46:53.338Z,97890.97
2022-12-11T20:49:22.572Z,97887.28
2022-12-11T20:51:52.421Z,97889.69
2022-12-11T20:54:19.398Z,97893.66
2022-12-11T20:56:48.844Z,97893.34
2022-12-11T20:59:15.619Z,97892.41
2022-12-11T21:01:45.016Z,97892.25
2022-12-11T21:04:12.236Z,97892.59
2022-12-11T21:06:40.673Z,97887.47
2022-12-11T21:09:20.023Z,97893.22
2022-12-11T21:11:46.819Z,97894.97
2022-12-11T21:14:14.963Z,97895.53
2022-12-11T21:16:42.312Z,97891.88
2022-12-11T21:19:16.496Z,97892.06
2022-12-11T21:21:46.878Z,97894.09
2022-12-11T21:24:20.297Z,97889.94
2022-12-11T21:26:49.960Z,97888.31
2022-12-11T21:29:18.124Z,97897.41
2022-12-11T21:31:47.614Z,97879.84
2022-12-11T21:34:14.603Z,97890.66
2022-12-11T21:36:41.337Z,97887.13
2022-12-11T21:39:12.469Z,97894.13
2022-12-11T21:41:40.654Z,97899.03
2022-12-11T21:46:59.321Z,97882.63
2022-12-11T21:49:26.179Z,97893.84
2022-12-11T21:51:52.889Z,97887.78
2022-12-11T21:54:19.902Z,97876.47
2022-12-11T21:56:47.088Z,97880.66
2022-12-11T21:59:16.594Z,97880.81
2022-12-11T22:01:48.251Z,97869.34
2022-12-11T22:04:16.238Z,97874.78
2022-12-11T22:06:43.807Z,97879.41
2022-12-11T22:09:14.506Z,97882.47
2022-12-11T22:11:42.518Z,97881.00
2022-12-11T22:14:12.800Z,97877.47
2022-12-11T22:16:40.998Z,97887.84
2022-12-11T22:19:07.970Z,97883.25
2022-12-11T22:21:34.983Z,97884.06
2022-12-11T22:24:02.622Z,97884.81
2022-12-11T22:26:29.880Z,97893.09
2022-12-11T22:28:57.092Z,97902.53
2022-12-11T22:31:25.951Z,97893.59
2022-12-11T22:33:56.467Z,97887.69
2022-12-11T22:36:26.077Z,97896.50
2022-12-11T22:38:53.187Z,97893.94
2022-12-11T22:41:22.603Z,97896.63
2022-12-11T22:43:49.765Z,97901.25
2022-12-11T22:46:25.738Z,97901.88
2022-12-11T22:48:55.709Z,97903.63
2022-12-11T22:51:25.432Z,97906.81
2022-12-11T22:53:54.612Z,97912.09
2022-12-11T22:56:21.331Z,97904.59
2022-12-11T22:58:53.389Z,97911.50
2022-12-11T23:01:22.786Z,97911.81
2022-12-11T23:03:49.971Z,97905.25
2022-12-11T23:06:22.578Z,97900.63
2022-12-11T23:08:49.501Z,97906.22
2022-12-11T23:11:17.849Z,97907.81
2022-12-11T23:13:46.504Z,97901.59
2022-12-11T23:16:13.345Z,97908.59
2022-12-11T23:18:40.118Z,97902.69
2022-12-11T23:21:07.822Z,97905.59
2022-12-11T23:23:37.524Z,97906.22
2022-12-11T23:26:05.667Z,97910.06
2022-12-11T23:28:34.013Z,97908.81
2022-12-11T23:31:03.494Z,97904.81
2022-12-11T23:33:30.238Z,97893.94
2022-12-11T23:36:03.842Z,97905.91
2022-12-11T23:38:30.677Z,97912.47
2022-12-11T23:40:59.993Z,97916.63
2022-12-11T23:43:26.882Z,97923.44
2022-12-11T23:45:53.727Z,97912.75
2022-12-11T23:48:23.825Z,97903.47
2022-12-11T23:50:50.782Z,97910.31
2022-12-11T23:53:20.133Z,97915.75
2022-12-11T23:55:47.048Z,97913.97
2022-12-11T23:58:13.993Z,97911.44
